Decoded Metar for KAOH (LIMA in OH, USA) (IATA:AOH) | Meteo·Mobile Aviation Weather
aviador You're here:

KAOH Decoded Metar

LIMA in OH, USA
Report Time2018-08-21 19:53:00
UTC Time2018-08-21 19:56:08
Flight Rules vfr VFR
Wind290° at 09 Gusting to 19 kt
W.Decomp.*RWY 28: 8.7 kt HW 2.5 kt RCW
RWY 32: 8.2 kt HW 3.7 kt LCW
W.Rank290° ranks 13
Current wind is below 290° avg. (9.6)
Visibility9999 m
Phenomena:N/A
Clouds:Few 016 Hf
Scattered 022 Hf
Expected CloudBase > 1,200 ft AGL from Temp-Dew spread
CeilingNone
Temp24°C (ISA +11)
Dew Point21°C (83% RH)
QNH1009 hPa
Density Alt2,703 ft
Elevation971 ft
Report Wrong Elevation
Raw Report
METAR KAOH 211953Z AUTO 29009G19KT 10SM FEW016 SCT022 24/21 A2980
RMK AO2 RAE1856 SLP084 P0000 T02390206=

Extra information for KAOH:More info

Metar Taf Metar & Taf Last 4 Metars F.Rules Stats Wind Profile Meteogram Temp Stats Airport Information Weather charts Add Link Nearby VenuesMetar ALERT Operation Metar Decoded Social comments

AIRNAV info for KAOH